Time;durP1;ratioP1;P1;durP2;ratioP2;P2;SDS_P1;SDS_P2;PMS_P1;PMS_P2;Temp;Humidity;BMP_temperature;BMP_pressure;BME280_temperature;BME280_humidity;BME280_pressure;Samples;Min_cycle;Max_cycle;Signal;HPM_P1;HPM_P2
2024/03/03 09:48:31;;;;;;;6.33;4.93;;;;;;;;;;4939513;29;20259;-84
2024/03/03 09:51:40;;;;;;;7.30;5.53;;;;;;;;;;4943094;29;20661;-84
2024/03/03 09:54:46;;;;;;;9.20;5.03;;;;;;;;;;4944200;29;20189;-85
2024/03/03 09:57:50;;;;;;;6.73;5.23;;;;;;;;;;4933024;29;20622;-80
2024/03/03 10:00:56;;;;;;;9.00;5.20;;;;;;;;;;4931337;29;20224;-87
2024/03/03 10:04:01;;;;;;;8.97;5.40;;;;;;;;;;4943266;29;20192;-86
2024/03/03 10:07:08;;;;;;;6.50;5.13;;;;;;;;;;4944346;29;20184;-86
2024/03/03 10:10:17;;;;;;;6.77;5.10;;;;;;;;;;4945525;29;20570;-83
2024/03/03 10:13:22;;;;;;;6.13;4.93;;;;;;;;;;4923149;29;20188;-83
2024/03/03 10:16:29;;;;;;;8.07;5.40;;;;;;;;;;4944660;29;20534;-83
2024/03/03 10:19:34;;;;;;;5.60;4.53;;;;;;;;;;4946267;29;20212;-83
2024/03/03 10:22:40;;;;;;;8.03;4.87;;;;;;;;;;4944654;29;20184;-83
2024/03/03 10:25:58;;;;;;;8.00;5.13;;;;;;;;;;4946082;29;20188;-83
2024/03/03 10:29:05;;;;;;;8.43;5.20;;;;;;;;;;4945408;29;20212;-83
2024/03/03 10:32:10;;;;;;;7.03;5.13;;;;;;;;;;4946285;29;20188;-83
2024/03/03 10:35:18;;;;;;;7.23;5.43;;;;;;;;;;4922968;29;20184;-83
2024/03/03 10:38:29;;;;;;;7.93;4.87;;;;;;;;;;4944656;29;20188;-83
2024/03/03 10:41:33;;;;;;;7.03;4.27;;;;;;;;;;4911720;29;20188;-84
2024/03/03 10:44:38;;;;;;;6.20;4.67;;;;;;;;;;4946297;29;20188;-84
2024/03/03 10:47:42;;;;;;;6.40;4.37;;;;;;;;;;4933053;29;20212;-83
2024/03/03 10:50:46;;;;;;;6.57;4.57;;;;;;;;;;4932176;29;20571;-84
2024/03/03 10:53:52;;;;;;;10.47;4.67;;;;;;;;;;4944496;29;20188;-85
2024/03/03 10:56:58;;;;;;;6.00;4.70;;;;;;;;;;4911707;29;20201;-86
2024/03/03 11:00:03;;;;;;;7.30;4.43;;;;;;;;;;4921028;29;20220;-85
2024/03/03 11:03:10;;;;;;;7.13;4.63;;;;;;;;;;4921375;29;20534;-86
2024/03/03 11:06:15;;;;;;;5.87;4.07;;;;;;;;;;4933112;29;20184;-85
2024/03/03 11:09:19;;;;;;;5.43;3.90;;;;;;;;;;4944378;29;20216;-85
2024/03/03 11:12:26;;;;;;;5.63;4.10;;;;;;;;;;4922809;29;20638;-85
2024/03/03 11:15:34;;;;;;;6.47;4.03;;;;;;;;;;4932942;29;20192;-85
2024/03/03 11:18:42;;;;;;;5.30;3.80;;;;;;;;;;4945286;29;20184;-85
2024/03/03 11:21:56;;;;;;;5.73;3.63;;;;;;;;;;4922617;29;20188;-85
2024/03/03 11:25:03;;;;;;;5.60;3.47;;;;;;;;;;4932532;29;20185;-85
2024/03/03 11:28:10;;;;;;;5.97;4.17;;;;;;;;;;4944229;29;20212;-85
2024/03/03 11:31:15;;;;;;;5.73;3.33;;;;;;;;;;4941188;29;20224;-87
2024/03/03 11:34:20;;;;;;;4.63;3.87;;;;;;;;;;4929444;29;20707;-89
2024/03/03 11:37:27;;;;;;;4.37;3.80;;;;;;;;;;4929057;29;20547;-89
2024/03/03 11:40:32;;;;;;;4.70;3.47;;;;;;;;;;4929160;29;20705;-89
2024/03/03 11:43:40;;;;;;;4.30;3.03;;;;;;;;;;4940318;29;20187;-89
2024/03/03 11:46:47;;;;;;;5.70;3.30;;;;;;;;;;4930158;29;20212;-89
2024/03/03 11:49:51;;;;;;;4.20;3.10;;;;;;;;;;4940781;29;20318;-89
2024/03/03 11:52:55;;;;;;;6.73;3.03;;;;;;;;;;4940508;29;20189;-89
2024/03/03 11:56:01;;;;;;;5.40;3.00;;;;;;;;;;4919347;29;20192;-89
2024/03/03 11:59:05;;;;;;;3.93;3.00;;;;;;;;;;4928965;29;20188;-89
2024/03/03 12:02:13;;;;;;;4.57;2.73;;;;;;;;;;4907801;29;20192;-89
2024/03/03 12:05:18;;;;;;;4.83;2.30;;;;;;;;;;4917875;29;20184;-89
2024/03/03 12:08:23;;;;;;;4.57;2.90;;;;;;;;;;4928963;29;20220;-89
2024/03/03 12:11:27;;;;;;;3.80;2.23;;;;;;;;;;4917853;29;20224;-88
2024/03/03 12:14:30;;;;;;;3.00;2.33;;;;;;;;;;4928969;29;20192;-89
2024/03/03 12:17:35;;;;;;;3.90;2.50;;;;;;;;;;4939966;29;20184;-89
2024/03/03 12:20:42;;;;;;;4.03;2.40;;;;;;;;;;4928843;29;20681;-88
2024/03/03 12:23:46;;;;;;;4.87;2.87;;;;;;;;;;4917913;29;20531;-89
2024/03/03 12:26:51;;;;;;;3.13;2.37;;;;;;;;;;4939075;29;20200;-89
2024/03/03 12:30:09;;;;;;;5.10;2.07;;;;;;;;;;4906112;29;20240;-88
2024/03/03 12:33:14;;;;;;;2.77;2.43;;;;;;;;;;4928130;29;20180;-89
2024/03/03 12:36:19;;;;;;;3.67;2.37;;;;;;;;;;4917703;29;20189;-88
2024/03/03 12:39:23;;;;;;;4.10;2.30;;;;;;;;;;4917147;29;20188;-89
2024/03/03 12:42:27;;;;;;;3.97;2.00;;;;;;;;;;4906637;29;20645;-89
2024/03/03 12:45:32;;;;;;;2.87;1.73;;;;;;;;;;4917089;29;20196;-89
2024/03/03 12:48:36;;;;;;;4.40;2.10;;;;;;;;;;4933294;29;20224;-89
2024/03/03 12:51:41;;;;;;;4.07;1.87;;;;;;;;;;4916809;29;20196;-89
2024/03/03 12:54:47;;;;;;;3.63;1.83;;;;;;;;;;4916802;29;20188;-89
2024/03/03 12:57:52;;;;;;;3.40;2.00;;;;;;;;;;4916743;29;20187;-89
2024/03/03 13:00:56;;;;;;;3.43;1.53;;;;;;;;;;4926936;29;20223;-89
2024/03/03 13:04:00;;;;;;;1.77;1.40;;;;;;;;;;4927618;29;20192;-89
2024/03/03 13:07:07;;;;;;;2.10;1.43;;;;;;;;;;4916436;29;20188;-89
2024/03/03 13:10:16;;;;;;;2.87;1.50;;;;;;;;;;4915911;29;20235;-89
2024/03/03 13:13:20;;;;;;;1.93;1.30;;;;;;;;;;4938250;29;20188;-89
2024/03/03 13:16:25;;;;;;;3.30;1.30;;;;;;;;;;4916274;29;20192;-88
2024/03/03 13:19:43;;;;;;;3.80;1.50;;;;;;;;;;4927350;29;20219;-89
2024/03/03 13:22:47;;;;;;;3.73;1.47;;;;;;;;;;4916392;29;20189;-88
2024/03/03 13:25:52;;;;;;;5.60;1.50;;;;;;;;;;4916160;29;20199;-89
2024/03/03 13:28:56;;;;;;;3.00;1.30;;;;;;;;;;4915724;29;20697;-89
2024/03/03 13:32:00;;;;;;;4.13;1.33;;;;;;;;;;4927004;29;20184;-89
2024/03/03 13:35:05;;;;;;;2.33;1.40;;;;;;;;;;4915914;29;20218;-89
2024/03/03 13:38:09;;;;;;;3.30;1.30;;;;;;;;;;4938621;29;20188;-89
2024/03/03 13:41:14;;;;;;;2.20;1.50;;;;;;;;;;4937594;29;20696;-89
2024/03/03 13:44:18;;;;;;;2.63;1.70;;;;;;;;;;4937411;29;20650;-89
2024/03/03 13:47:22;;;;;;;2.67;1.43;;;;;;;;;;4905630;29;20216;-88
2024/03/03 13:50:26;;;;;;;2.27;1.50;;;;;;;;;;4926402;29;20705;-88
2024/03/03 13:53:31;;;;;;;4.63;1.63;;;;;;;;;;4926530;29;20192;-89
2024/03/03 13:56:34;;;;;;;2.40;1.60;;;;;;;;;;4926533;29;20192;-89
2024/03/03 13:59:39;;;;;;;2.53;1.27;;;;;;;;;;4936954;29;20216;-88
2024/03/03 14:02:44;;;;;;;2.67;1.60;;;;;;;;;;4915718;29;20196;-89
2024/03/03 14:05:49;;;;;;;5.80;1.77;;;;;;;;;;4926582;29;20192;-89
2024/03/03 14:08:53;;;;;;;2.47;1.50;;;;;;;;;;4926083;29;20192;-88
2024/03/03 14:11:58;;;;;;;3.50;1.70;;;;;;;;;;4937041;29;20637;-89
2024/03/03 14:15:02;;;;;;;2.83;1.57;;;;;;;;;;4926218;29;20184;-89
2024/03/03 14:18:06;;;;;;;1.60;1.23;;;;;;;;;;4937476;29;20189;-89
2024/03/03 14:21:11;;;;;;;3.10;1.10;;;;;;;;;;4925599;29;20582;-89
2024/03/03 14:24:15;;;;;;;1.53;1.20;;;;;;;;;;4926218;29;20189;-89
2024/03/03 14:27:19;;;;;;;2.13;1.23;;;;;;;;;;4926457;29;20184;-88
2024/03/03 14:30:23;;;;;;;3.93;1.10;;;;;;;;;;4925677;29;20231;-88
2024/03/03 14:33:28;;;;;;;1.70;1.27;;;;;;;;;;4926873;29;20658;-89
2024/03/03 14:36:32;;;;;;;1.70;1.03;;;;;;;;;;4931164;29;20188;-89
2024/03/03 14:39:36;;;;;;;2.03;1.30;;;;;;;;;;4930184;29;20219;-89
2024/03/03 14:42:41;;;;;;;2.50;1.10;;;;;;;;;;4929760;29;20192;-88
2024/03/03 14:45:45;;;;;;;1.43;0.93;;;;;;;;;;4929950;29;20188;-89
2024/03/03 14:48:49;;;;;;;3.97;1.23;;;;;;;;;;4930223;29;20215;-88
2024/03/03 14:51:54;;;;;;;2.27;1.20;;;;;;;;;;4940504;29;20192;-88
2024/03/03 14:55:01;;;;;;;8.03;1.20;;;;;;;;;;4930001;29;20657;-89
2024/03/03 14:58:06;;;;;;;1.53;0.93;;;;;;;;;;4929481;29;20193;-89
2024/03/03 15:01:10;;;;;;;1.80;1.10;;;;;;;;;;4939788;29;20717;-89
2024/03/03 15:04:14;;;;;;;3.40;1.10;;;;;;;;;;4931693;29;20188;-89
2024/03/03 15:07:19;;;;;;;2.43;0.97;;;;;;;;;;4931190;29;20646;-88
2024/03/03 15:10:24;;;;;;;3.20;1.20;;;;;;;;;;4929549;29;20235;-89
2024/03/03 15:13:28;;;;;;;3.23;1.20;;;;;;;;;;4940836;29;20188;-89
2024/03/03 15:16:32;;;;;;;2.27;1.70;;;;;;;;;;4940639;29;20188;-88
2024/03/03 15:19:36;;;;;;;1.90;1.40;;;;;;;;;;4931530;29;20554;-88
2024/03/03 15:22:41;;;;;;;2.20;1.23;;;;;;;;;;4929824;29;20188;-88
2024/03/03 15:25:45;;;;;;;4.00;1.83;;;;;;;;;;4930182;29;20555;-89
2024/03/03 15:28:49;;;;;;;2.67;1.60;;;;;;;;;;4943486;29;20188;-88
2024/03/03 15:31:53;;;;;;;2.73;1.47;;;;;;;;;;4945117;29;20176;-89
2024/03/03 15:34:57;;;;;;;2.13;1.20;;;;;;;;;;4942702;29;20525;-89
2024/03/03 15:38:02;;;;;;;7.97;1.50;;;;;;;;;;4929133;29;20346;-89
2024/03/03 15:41:06;;;;;;;2.23;1.10;;;;;;;;;;4940242;29;20224;-88
2024/03/03 15:44:11;;;;;;;3.90;1.33;;;;;;;;;;4940372;29;20184;-89
2024/03/03 15:47:15;;;;;;;6.17;1.37;;;;;;;;;;4928863;29;20235;-89
2024/03/03 15:50:20;;;;;;;2.00;1.00;;;;;;;;;;4940086;29;20239;-83
2024/03/03 15:53:24;;;;;;;2.40;1.40;;;;;;;;;;4927988;29;20192;-85
2024/03/03 15:56:30;;;;;;;5.00;1.10;;;;;;;;;;4928297;29;20540;-86
2024/03/03 15:59:34;;;;;;;3.10;1.30;;;;;;;;;;4928335;29;20224;-87
2024/03/03 16:02:42;;;;;;;1.97;1.20;;;;;;;;;;4928708;29;20184;-89
2024/03/03 16:05:46;;;;;;;2.83;1.30;;;;;;;;;;4916904;29;20207;-87
2024/03/03 16:08:50;;;;;;;3.60;1.30;;;;;;;;;;4939128;29;20188;-86
2024/03/03 16:11:54;;;;;;;2.50;1.20;;;;;;;;;;4927242;29;20180;-87
2024/03/03 16:14:59;;;;;;;4.33;1.20;;;;;;;;;;4938337;29;20192;-88
2024/03/03 16:18:03;;;;;;;3.47;1.27;;;;;;;;;;4927339;29;20638;-87
2024/03/03 16:21:08;;;;;;;1.73;1.20;;;;;;;;;;4926723;29;20228;-87
2024/03/03 16:24:11;;;;;;;1.70;1.17;;;;;;;;;;4939024;29;20192;-87
2024/03/03 16:27:16;;;;;;;3.87;1.67;;;;;;;;;;4938141;29;20192;-86
2024/03/03 16:30:20;;;;;;;3.00;1.53;;;;;;;;;;4916285;29;20232;-85
2024/03/03 16:33:23;;;;;;;4.43;1.40;;;;;;;;;;4938524;29;20188;-87
2024/03/03 16:36:34;;;;;;;3.27;1.70;;;;;;;;;;4928036;29;20188;-89
2024/03/03 16:39:38;;;;;;;2.17;1.50;;;;;;;;;;4939280;29;20220;-87
2024/03/03 16:42:58;;;;;;;2.00;1.40;;;;;;;;;;4938366;29;20196;-89
2024/03/03 16:46:04;;;;;;;1.43;1.20;;;;;;;;;;4937944;29;20189;-89
2024/03/03 16:49:09;;;;;;;2.23;1.20;;;;;;;;;;4937149;29;20749;-89
2024/03/03 16:52:17;;;;;;;3.13;1.30;;;;;;;;;;4937555;29;20181;-86
2024/03/03 16:55:22;;;;;;;2.70;1.33;;;;;;;;;;4916124;29;20188;-85
2024/03/03 16:58:26;;;;;;;4.40;1.37;;;;;;;;;;4914873;29;20188;-89
2024/03/03 17:01:30;;;;;;;2.00;1.00;;;;;;;;;;4937600;29;20549;-89
2024/03/03 17:04:35;;;;;;;1.70;1.10;;;;;;;;;;4938593;29;20192;-89
2024/03/03 17:07:38;;;;;;;1.90;1.20;;;;;;;;;;4915656;29;20188;-87
2024/03/03 17:10:43;;;;;;;3.47;1.07;;;;;;;;;;4926420;29;20240;-89
2024/03/03 17:13:47;;;;;;;1.40;1.00;;;;;;;;;;4915172;29;20626;-89
2024/03/03 17:16:51;;;;;;;1.93;1.00;;;;;;;;;;4926144;29;20192;-89
2024/03/03 17:19:56;;;;;;;2.63;1.03;;;;;;;;;;4914774;29;20566;-89
2024/03/03 17:23:00;;;;;;;1.37;0.93;;;;;;;;;;4915122;29;20188;-86
2024/03/03 17:26:05;;;;;;;5.53;1.00;;;;;;;;;;4937970;29;20188;-87
2024/03/03 17:29:09;;;;;;;1.23;0.87;;;;;;;;;;4938014;29;20188;-83
2024/03/03 17:32:13;;;;;;;1.70;0.73;;;;;;;;;;4937468;29;20189;-87
2024/03/03 17:35:17;;;;;;;1.40;1.00;;;;;;;;;;4937315;29;20188;-90
2024/03/03 17:38:21;;;;;;;1.53;1.10;;;;;;;;;;4938348;29;20184;-87
2024/03/03 17:41:25;;;;;;;5.33;1.10;;;;;;;;;;4937311;29;20220;-84
2024/03/03 17:44:30;;;;;;;1.97;1.10;;;;;;;;;;4926627;29;20627;-84
2024/03/03 17:47:34;;;;;;;2.00;1.30;;;;;;;;;;4904814;29;20681;-84
2024/03/03 17:50:39;;;;;;;2.60;1.13;;;;;;;;;;4926502;29;20232;-86
2024/03/03 17:53:43;;;;;;;3.97;1.10;;;;;;;;;;4916261;29;20196;-87
2024/03/03 17:56:47;;;;;;;3.00;1.30;;;;;;;;;;4916249;29;20188;-88
2024/03/03 17:59:51;;;;;;;1.70;1.40;;;;;;;;;;4920954;29;20220;-85
2024/03/03 18:02:56;;;;;;;1.97;1.10;;;;;;;;;;4943186;29;20192;-87
2024/03/03 18:06:00;;;;;;;2.10;1.03;;;;;;;;;;4927760;29;20187;-86
2024/03/03 18:09:06;;;;;;;3.47;1.17;;;;;;;;;;4916021;29;20184;-86
2024/03/03 18:12:10;;;;;;;2.77;1.30;;;;;;;;;;4909070;29;20578;-86
2024/03/03 18:15:14;;;;;;;2.37;0.90;;;;;;;;;;4941381;29;20189;-85
2024/03/03 18:18:19;;;;;;;4.93;1.30;;;;;;;;;;4930578;29;20188;-85
2024/03/03 18:21:23;;;;;;;1.97;1.30;;;;;;;;;;4908188;29;20219;-85
2024/03/03 18:24:29;;;;;;;3.43;1.23;;;;;;;;;;4909093;29;20642;-85
2024/03/03 18:27:34;;;;;;;5.73;1.10;;;;;;;;;;4918944;29;20666;-85
2024/03/03 18:30:37;;;;;;;2.80;1.00;;;;;;;;;;4919157;29;20578;-85
2024/03/03 18:33:41;;;;;;;2.20;1.00;;;;;;;;;;4936533;29;20184;-85
2024/03/03 18:36:46;;;;;;;2.77;1.20;;;;;;;;;;4926368;29;20188;-85
2024/03/03 18:39:54;;;;;;;3.03;1.10;;;;;;;;;;4927356;29;20220;-87
2024/03/03 18:42:58;;;;;;;1.47;0.90;;;;;;;;;;4950283;29;20638;-88
2024/03/03 18:46:04;;;;;;;1.30;0.90;;;;;;;;;;4938344;29;20541;-91
2024/03/03 18:49:09;;;;;;;4.13;1.17;;;;;;;;;;4926391;29;20192;-90
2024/03/03 18:52:13;;;;;;;3.20;1.33;;;;;;;;;;4948578;29;20220;-91
2024/03/03 18:55:18;;;;;;;1.90;1.30;;;;;;;;;;4948282;29;20196;-91
2024/03/03 18:58:23;;;;;;;4.87;1.47;;;;;;;;;;4926826;29;20204;-91
2024/03/03 19:01:27;;;;;;;3.33;1.23;;;;;;;;;;4948040;29;20220;-91
2024/03/03 19:04:37;;;;;;;1.93;1.20;;;;;;;;;;4929243;29;20192;-86
2024/03/03 19:07:45;;;;;;;2.37;1.40;;;;;;;;;;4931034;29;20188;-88
2024/03/03 19:10:59;;;;;;;2.80;1.33;;;;;;;;;;4930469;29;20224;-86
2024/03/03 19:14:13;;;;;;;2.07;1.43;;;;;;;;;;4918623;29;20184;-88
2024/03/03 19:17:26;;;;;;;5.93;1.50;;;;;;;;;;4929287;29;20189;-85
2024/03/03 19:20:31;;;;;;;2.13;1.47;;;;;;;;;;4927430;29;20220;-89
2024/03/03 19:23:35;;;;;;;3.93;1.40;;;;;;;;;;4945364;29;20188;-86
2024/03/03 19:26:39;;;;;;;3.67;1.50;;;;;;;;;;4934183;29;20196;-90
2024/03/03 19:29:44;;;;;;;2.17;1.57;;;;;;;;;;4933773;29;20223;-87
2024/03/03 19:32:48;;;;;;;4.00;1.90;;;;;;;;;;4944181;29;20185;-89
2024/03/03 19:35:52;;;;;;;3.40;1.57;;;;;;;;;;4933399;29;20192;-88
2024/03/03 19:38:57;;;;;;;3.67;1.50;;;;;;;;;;4945026;29;20184;-86
2024/03/03 19:42:02;;;;;;;2.90;1.50;;;;;;;;;;4922790;29;20189;-86
2024/03/03 19:45:08;;;;;;;3.47;1.90;;;;;;;;;;4932804;29;20648;-86
2024/03/03 19:48:12;;;;;;;2.40;1.80;;;;;;;;;;4921242;29;20689;-86
2024/03/03 19:51:17;;;;;;;4.17;1.93;;;;;;;;;;4910633;29;20236;-86
2024/03/03 19:54:22;;;;;;;3.37;2.00;;;;;;;;;;4910034;29;20185;-86
2024/03/03 19:57:26;;;;;;;5.83;2.30;;;;;;;;;;4932173;29;20192;-86
2024/03/03 20:00:30;;;;;;;2.73;2.00;;;;;;;;;;4931690;29;20223;-86
2024/03/03 20:03:34;;;;;;;2.63;2.00;;;;;;;;;;4931716;29;20535;-86
2024/03/03 20:06:39;;;;;;;5.13;2.63;;;;;;;;;;4921034;29;20196;-86
2024/03/03 20:09:45;;;;;;;3.87;1.70;;;;;;;;;;4921365;29;20681;-86
2024/03/03 20:12:50;;;;;;;3.73;2.03;;;;;;;;;;4921145;29;20220;-86
2024/03/03 20:15:54;;;;;;;3.47;2.13;;;;;;;;;;4931907;29;20188;-86
2024/03/03 20:19:00;;;;;;;2.43;1.90;;;;;;;;;;4930028;29;20188;-86
2024/03/03 20:22:05;;;;;;;2.67;2.13;;;;;;;;;;4919300;29;20185;-86
2024/03/03 20:25:20;;;;;;;3.57;2.07;;;;;;;;;;4920628;29;20192;-86
2024/03/03 20:28:24;;;;;;;2.47;1.87;;;;;;;;;;4920985;29;20196;-85
2024/03/03 20:31:28;;;;;;;2.87;2.27;;;;;;;;;;4930686;29;20232;-85
2024/03/03 20:34:33;;;;;;;4.20;2.30;;;;;;;;;;4910589;29;20530;-85
2024/03/03 20:37:37;;;;;;;3.90;2.30;;;;;;;;;;4921818;29;20192;-85
2024/03/03 20:40:41;;;;;;;3.17;1.80;;;;;;;;;;4910084;29;20220;-85
2024/03/03 20:43:51;;;;;;;4.17;2.13;;;;;;;;;;4931477;29;20562;-89
2024/03/03 20:46:56;;;;;;;2.93;1.97;;;;;;;;;;4931283;29;20184;-90
2024/03/03 20:50:00;;;;;;;2.50;2.10;;;;;;;;;;4921534;29;20216;-90
2024/03/03 20:53:05;;;;;;;3.07;1.90;;;;;;;;;;4935445;29;20180;-90
2024/03/03 20:56:09;;;;;;;3.23;2.23;;;;;;;;;;4931927;29;20634;-90
2024/03/03 20:59:13;;;;;;;4.97;2.27;;;;;;;;;;4920507;29;20192;-89
2024/03/03 21:02:17;;;;;;;3.20;2.10;;;;;;;;;;4930620;29;20614;-90
2024/03/03 21:05:21;;;;;;;4.27;2.17;;;;;;;;;;4919294;29;20192;-90
2024/03/03 21:08:25;;;;;;;2.80;2.10;;;;;;;;;;4918830;29;20188;-90
2024/03/03 21:11:31;;;;;;;4.20;2.20;;;;;;;;;;4918992;29;20232;-90
2024/03/03 21:14:36;;;;;;;3.30;1.90;;;;;;;;;;4941466;29;20188;-90
2024/03/03 21:17:41;;;;;;;4.50;2.20;;;;;;;;;;4930221;29;20188;-90
2024/03/03 21:20:53;;;;;;;4.47;2.20;;;;;;;;;;4918158;29;20224;-91
2024/03/03 21:24:08;;;;;;;3.33;2.07;;;;;;;;;;4929383;29;20184;-90
2024/03/03 21:27:13;;;;;;;2.90;1.90;;;;;;;;;;4940501;29;20527;-90
2024/03/03 21:30:17;;;;;;;2.90;2.10;;;;;;;;;;4929442;29;20224;-90
2024/03/03 21:33:21;;;;;;;4.00;2.20;;;;;;;;;;4929731;29;20184;-91
2024/03/03 21:36:25;;;;;;;2.93;2.00;;;;;;;;;;4939852;29;20188;-91
2024/03/03 21:39:31;;;;;;;7.43;2.40;;;;;;;;;;4940608;29;20220;-89
2024/03/03 21:42:36;;;;;;;4.70;1.80;;;;;;;;;;4918878;29;20193;-92
2024/03/03 21:45:40;;;;;;;2.70;2.03;;;;;;;;;;4939811;29;20188;-92
2024/03/03 21:48:44;;;;;;;3.90;2.37;;;;;;;;;;4931010;29;20212;-91
2024/03/03 21:51:49;;;;;;;8.13;2.03;;;;;;;;;;4929881;29;20216;-90
2024/03/03 21:54:53;;;;;;;3.43;2.43;;;;;;;;;;4940686;29;20184;-90
2024/03/03 21:57:57;;;;;;;2.10;1.90;;;;;;;;;;4929356;29;20188;-91
2024/03/03 22:01:02;;;;;;;2.73;2.10;;;;;;;;;;4941245;29;20566;-91
2024/03/03 22:04:58;;;;;;;4.83;2.23;;;;;;;;;;4930016;29;20188;-91
2024/03/03 22:08:02;;;;;;;4.23;2.10;;;;;;;;;;4940462;29;20188;-91
2024/03/03 22:11:06;;;;;;;2.50;1.90;;;;;;;;;;4916813;29;20220;-91
2024/03/03 22:14:11;;;;;;;5.73;2.10;;;;;;;;;;4916456;29;20188;-91
2024/03/03 22:17:15;;;;;;;2.80;1.80;;;;;;;;;;4938546;29;20188;-91
2024/03/03 22:20:19;;;;;;;3.07;2.17;;;;;;;;;;4916311;29;20227;-91
2024/03/03 22:23:23;;;;;;;3.67;2.07;;;;;;;;;;4938740;29;20555;-91
2024/03/03 22:26:28;;;;;;;4.13;2.17;;;;;;;;;;4916463;29;20192;-91
2024/03/03 22:29:32;;;;;;;3.33;2.23;;;;;;;;;;4916135;29;20232;-91
2024/03/03 22:32:37;;;;;;;4.97;2.27;;;;;;;;;;4906295;29;20216;-90
2024/03/03 22:35:42;;;;;;;4.53;2.10;;;;;;;;;;4939686;29;20200;-90
2024/03/03 22:38:46;;;;;;;3.40;2.33;;;;;;;;;;4927093;29;20192;-91
2024/03/03 22:41:50;;;;;;;2.70;2.20;;;;;;;;;;4927014;29;20185;-91
2024/03/03 22:44:55;;;;;;;9.87;3.57;;;;;;;;;;4916142;29;20658;-91
2024/03/03 22:47:59;;;;;;;7.80;4.77;;;;;;;;;;4938040;29;20215;-91
2024/03/03 22:51:06;;;;;;;8.20;4.70;;;;;;;;;;4938084;29;20228;-91
2024/03/03 22:54:13;;;;;;;10.10;4.47;;;;;;;;;;4938189;29;20520;-91
2024/03/03 22:57:20;;;;;;;7.23;3.53;;;;;;;;;;4928806;29;20189;-91
2024/03/03 23:00:24;;;;;;;5.47;3.13;;;;;;;;;;4919190;29;20235;-91
2024/03/03 23:03:28;;;;;;;10.43;2.97;;;;;;;;;;4929730;29;20184;-91
2024/03/03 23:06:33;;;;;;;5.77;3.20;;;;;;;;;;4940863;29;20188;-91
2024/03/03 23:09:37;;;;;;;3.17;2.40;;;;;;;;;;4940095;29;20228;-91
2024/03/03 23:12:41;;;;;;;3.90;2.57;;;;;;;;;;4929222;29;20216;-91
2024/03/03 23:15:46;;;;;;;6.13;3.13;;;;;;;;;;4929245;29;20188;-90
2024/03/03 23:18:50;;;;;;;6.33;3.80;;;;;;;;;;4941448;29;20188;-91
2024/03/03 23:21:54;;;;;;;7.83;4.53;;;;;;;;;;4919051;29;20184;-91
2024/03/03 23:24:58;;;;;;;7.43;3.87;;;;;;;;;;4940568;29;20522;-91
2024/03/03 23:28:03;;;;;;;6.33;3.93;;;;;;;;;;4940531;29;20184;-90
2024/03/03 23:31:07;;;;;;;6.67;3.63;;;;;;;;;;4931476;29;20223;-91
2024/03/03 23:34:11;;;;;;;5.73;3.10;;;;;;;;;;4929015;29;20176;-90
2024/03/03 23:37:17;;;;;;;5.57;2.87;;;;;;;;;;4941123;29;20188;-90
2024/03/03 23:40:22;;;;;;;4.70;3.10;;;;;;;;;;4930105;29;20224;-89
2024/03/03 23:43:26;;;;;;;6.93;3.13;;;;;;;;;;4940583;29;20537;-91
2024/03/03 23:46:30;;;;;;;6.93;3.60;;;;;;;;;;4941853;29;20192;-90
2024/03/03 23:49:34;;;;;;;4.47;3.03;;;;;;;;;;4930759;29;20227;-91
2024/03/03 23:52:38;;;;;;;6.47;3.07;;;;;;;;;;4919114;29;20219;-91
2024/03/03 23:55:47;;;;;;;5.93;3.07;;;;;;;;;;4941394;29;20641;-91
2024/03/03 23:58:51;;;;;;;8.13;3.50;;;;;;;;;;4918213;29;20192;-91
